sensor_id;sensor_type;location;lat;lon;timestamp;temperature;humidity
21318;DHT22;10818;50.830;6.524;2023-04-03T00:02:04;3.60;99.90
21318;DHT22;10818;50.830;6.524;2023-04-03T00:07:05;3.70;99.90
21318;DHT22;10818;50.830;6.524;2023-04-03T00:12:05;3.50;99.90
21318;DHT22;10818;50.830;6.524;2023-04-03T00:17:06;3.60;99.90
21318;DHT22;10818;50.830;6.524;2023-04-03T00:22:06;3.60;99.90
21318;DHT22;10818;50.830;6.524;2023-04-03T00:27:07;3.70;99.90
21318;DHT22;10818;50.830;6.524;2023-04-03T00:32:07;3.60;99.90
21318;DHT22;10818;50.830;6.524;2023-04-03T00:37:08;3.50;99.90
21318;DHT22;10818;50.830;6.524;2023-04-03T00:42:08;3.60;99.90
21318;DHT22;10818;50.830;6.524;2023-04-03T00:47:10;3.60;99.90
21318;DHT22;10818;50.830;6.524;2023-04-03T00:52:13;3.60;99.90
21318;DHT22;10818;50.830;6.524;2023-04-03T00:57:15;3.70;99.90
21318;DHT22;10818;50.830;6.524;2023-04-03T01:02:16;3.70;99.90
21318;DHT22;10818;50.830;6.524;2023-04-03T01:07:23;3.70;99.90
21318;DHT22;10818;50.830;6.524;2023-04-03T01:12:28;3.80;99.90
21318;DHT22;10818;50.830;6.524;2023-04-03T01:22:30;3.80;99.90
21318;DHT22;10818;50.830;6.524;2023-04-03T01:27:35;3.90;99.90
21318;DHT22;10818;50.830;6.524;2023-04-03T01:32:35;3.80;99.90
21318;DHT22;10818;50.830;6.524;2023-04-03T01:37:36;3.80;99.90
21318;DHT22;10818;50.830;6.524;2023-04-03T01:42:36;3.70;99.90
21318;DHT22;10818;50.830;6.524;2023-04-03T01:47:37;3.40;99.90
21318;DHT22;10818;50.830;6.524;2023-04-03T01:52:37;3.20;99.90
21318;DHT22;10818;50.830;6.524;2023-04-03T01:57:38;3.00;99.90
21318;DHT22;10818;50.830;6.524;2023-04-03T02:02:38;2.90;99.90
21318;DHT22;10818;50.830;6.524;2023-04-03T02:07:39;2.80;99.90
21318;DHT22;10818;50.830;6.524;2023-04-03T02:12:39;2.60;99.90
21318;DHT22;10818;50.830;6.524;2023-04-03T02:17:40;2.40;99.90
21318;DHT22;10818;50.830;6.524;2023-04-03T02:22:40;2.40;99.90
21318;DHT22;10818;50.830;6.524;2023-04-03T02:27:40;2.30;99.90
21318;DHT22;10818;50.830;6.524;2023-04-03T02:32:41;2.20;99.90
21318;DHT22;10818;50.830;6.524;2023-04-03T02:37:42;2.20;99.90
21318;DHT22;10818;50.830;6.524;2023-04-03T02:42:42;2.10;99.90
21318;DHT22;10818;50.830;6.524;2023-04-03T02:47:43;2.00;99.90
21318;DHT22;10818;50.830;6.524;2023-04-03T02:52:43;2.00;99.90
21318;DHT22;10818;50.830;6.524;2023-04-03T02:57:44;1.80;99.90
21318;DHT22;10818;50.830;6.524;2023-04-03T03:02:44;1.80;99.90
21318;DHT22;10818;50.830;6.524;2023-04-03T03:07:45;1.80;99.90
21318;DHT22;10818;50.830;6.524;2023-04-03T03:12:45;1.80;99.90
21318;DHT22;10818;50.830;6.524;2023-04-03T03:17:46;1.80;99.90
21318;DHT22;10818;50.830;6.524;2023-04-03T03:22:46;1.80;99.90
21318;DHT22;10818;50.830;6.524;2023-04-03T03:27:47;1.80;99.90
21318;DHT22;10818;50.830;6.524;2023-04-03T03:32:47;1.70;99.90
21318;DHT22;10818;50.830;6.524;2023-04-03T03:37:48;1.60;99.90
21318;DHT22;10818;50.830;6.524;2023-04-03T03:42:48;1.50;99.90
21318;DHT22;10818;50.830;6.524;2023-04-03T03:47:49;1.50;99.90
21318;DHT22;10818;50.830;6.524;2023-04-03T03:52:49;1.40;99.90
21318;DHT22;10818;50.830;6.524;2023-04-03T03:57:49;1.40;99.90
21318;DHT22;10818;50.830;6.524;2023-04-03T04:02:50;1.30;99.90
21318;DHT22;10818;50.830;6.524;2023-04-03T04:07:51;1.30;99.90
21318;DHT22;10818;50.830;6.524;2023-04-03T04:12:51;1.20;99.90
21318;DHT22;10818;50.830;6.524;2023-04-03T04:17:52;1.20;99.90
21318;DHT22;10818;50.830;6.524;2023-04-03T04:22:53;1.20;99.90
21318;DHT22;10818;50.830;6.524;2023-04-03T04:27:53;1.20;99.90
21318;DHT22;10818;50.830;6.524;2023-04-03T04:32:54;1.20;99.90
21318;DHT22;10818;50.830;6.524;2023-04-03T04:37:54;1.20;99.90
21318;DHT22;10818;50.830;6.524;2023-04-03T04:42:55;1.10;99.90
21318;DHT22;10818;50.830;6.524;2023-04-03T04:47:55;1.10;99.90
21318;DHT22;10818;50.830;6.524;2023-04-03T04:52:56;1.10;99.90
21318;DHT22;10818;50.830;6.524;2023-04-03T04:57:56;1.00;99.90
21318;DHT22;10818;50.830;6.524;2023-04-03T05:02:57;1.00;99.90
21318;DHT22;10818;50.830;6.524;2023-04-03T05:07:57;1.00;99.90
21318;DHT22;10818;50.830;6.524;2023-04-03T05:12:58;1.00;99.90
21318;DHT22;10818;50.830;6.524;2023-04-03T05:17:58;1.00;99.90
21318;DHT22;10818;50.830;6.524;2023-04-03T05:22:59;1.10;99.90
21318;DHT22;10818;50.830;6.524;2023-04-03T05:27:59;1.10;99.90
21318;DHT22;10818;50.830;6.524;2023-04-03T05:33:00;1.20;99.90
21318;DHT22;10818;50.830;6.524;2023-04-03T05:38:01;1.20;99.90
21318;DHT22;10818;50.830;6.524;2023-04-03T05:43:01;1.30;99.90
21318;DHT22;10818;50.830;6.524;2023-04-03T05:48:01;1.30;99.90
21318;DHT22;10818;50.830;6.524;2023-04-03T05:53:02;1.40;99.90
21318;DHT22;10818;50.830;6.524;2023-04-03T05:58:03;1.50;99.90
21318;DHT22;10818;50.830;6.524;2023-04-03T06:03:04;1.70;99.90
21318;DHT22;10818;50.830;6.524;2023-04-03T06:08:05;1.70;99.90
21318;DHT22;10818;50.830;6.524;2023-04-03T06:13:06;1.70;99.90
21318;DHT22;10818;50.830;6.524;2023-04-03T06:18:06;1.80;99.90
21318;DHT22;10818;50.830;6.524;2023-04-03T06:23:07;2.00;99.90
21318;DHT22;10818;50.830;6.524;2023-04-03T06:28:08;2.10;99.90
21318;DHT22;10818;50.830;6.524;2023-04-03T06:33:10;2.30;99.90
21318;DHT22;10818;50.830;6.524;2023-04-03T06:38:10;2.20;99.90
21318;DHT22;10818;50.830;6.524;2023-04-03T06:43:11;2.30;99.90
21318;DHT22;10818;50.830;6.524;2023-04-03T06:48:12;2.60;99.90
21318;DHT22;10818;50.830;6.524;2023-04-03T06:53:12;2.70;99.90
21318;DHT22;10818;50.830;6.524;2023-04-03T06:58:13;2.90;99.90
21318;DHT22;10818;50.830;6.524;2023-04-03T07:03:15;3.20;99.90
21318;DHT22;10818;50.830;6.524;2023-04-03T07:08:16;3.40;99.90
21318;DHT22;10818;50.830;6.524;2023-04-03T07:13:16;3.90;99.90
21318;DHT22;10818;50.830;6.524;2023-04-03T07:18:17;4.00;99.90
21318;DHT22;10818;50.830;6.524;2023-04-03T07:23:18;4.20;99.90
21318;DHT22;10818;50.830;6.524;2023-04-03T07:28:19;6.20;99.90
21318;DHT22;10818;50.830;6.524;2023-04-03T07:33:21;11.90;99.90
21318;DHT22;10818;50.830;6.524;2023-04-03T07:38:22;16.90;99.90
21318;DHT22;10818;50.830;6.524;2023-04-03T07:43:23;21.00;90.90
21318;DHT22;10818;50.830;6.524;2023-04-03T07:48:25;22.70;68.80
21318;DHT22;10818;50.830;6.524;2023-04-03T07:53:25;23.80;67.20
21318;DHT22;10818;50.830;6.524;2023-04-03T07:58:26;24.80;60.80
21318;DHT22;10818;50.830;6.524;2023-04-03T08:03:26;22.70;59.50
21318;DHT22;10818;50.830;6.524;2023-04-03T08:08:27;24.30;56.20
21318;DHT22;10818;50.830;6.524;2023-04-03T08:13:29;27.30;52.10
21318;DHT22;10818;50.830;6.524;2023-04-03T08:18:30;24.80;51.40
21318;DHT22;10818;50.830;6.524;2023-04-03T08:23:31;25.10;52.00
21318;DHT22;10818;50.830;6.524;2023-04-03T08:28:32;25.40;50.00
21318;DHT22;10818;50.830;6.524;2023-04-03T08:33:33;24.40;49.50
21318;DHT22;10818;50.830;6.524;2023-04-03T08:38:34;24.20;51.00
21318;DHT22;10818;50.830;6.524;2023-04-03T08:43:45;23.70;50.50
21318;DHT22;10818;50.830;6.524;2023-04-03T08:48:49;21.20;52.30
21318;DHT22;10818;50.830;6.524;2023-04-03T08:58:55;17.70;59.30
21318;DHT22;10818;50.830;6.524;2023-04-03T09:03:56;16.50;59.40
21318;DHT22;10818;50.830;6.524;2023-04-03T09:14:26;11.60;75.70
21318;DHT22;10818;50.830;6.524;2023-04-03T09:19:36;10.90;83.40
21318;DHT22;10818;50.830;6.524;2023-04-03T09:24:39;10.70;85.70
21318;DHT22;10818;50.830;6.524;2023-04-03T09:29:43;9.80;88.50
21318;DHT22;10818;50.830;6.524;2023-04-03T09:34:46;9.70;91.00
21318;DHT22;10818;50.830;6.524;2023-04-03T09:39:51;10.10;90.80
21318;DHT22;10818;50.830;6.524;2023-04-03T09:45:01;10.00;90.50
21318;DHT22;10818;50.830;6.524;2023-04-03T09:55:15;9.70;92.10
21318;DHT22;10818;50.830;6.524;2023-04-03T10:05:38;10.10;89.10
21318;DHT22;10818;50.830;6.524;2023-04-03T10:10:40;9.70;92.30
21318;DHT22;10818;50.830;6.524;2023-04-03T10:15:45;9.70;93.10
21318;DHT22;10818;50.830;6.524;2023-04-03T10:20:46;9.60;92.30
21318;DHT22;10818;50.830;6.524;2023-04-03T10:30:58;9.70;89.70
21318;DHT22;10818;50.830;6.524;2023-04-03T10:36:46;9.60;88.20
21318;DHT22;10818;50.830;6.524;2023-04-03T10:46:36;9.60;89.70
21318;DHT22;10818;50.830;6.524;2023-04-03T10:51:41;9.60;90.00
21318;DHT22;10818;50.830;6.524;2023-04-03T10:57:03;9.40;91.50
21318;DHT22;10818;50.830;6.524;2023-04-03T11:02:06;9.50;91.50
21318;DHT22;10818;50.830;6.524;2023-04-03T11:07:08;9.80;88.20
21318;DHT22;10818;50.830;6.524;2023-04-03T11:12:13;9.80;85.30
21318;DHT22;10818;50.830;6.524;2023-04-03T11:22:23;9.30;88.60
21318;DHT22;10818;50.830;6.524;2023-04-03T11:27:24;9.60;89.80
21318;DHT22;10818;50.830;6.524;2023-04-03T11:32:35;9.60;90.00
21318;DHT22;10818;50.830;6.524;2023-04-03T11:37:38;9.80;87.40
21318;DHT22;10818;50.830;6.524;2023-04-03T11:42:40;9.60;88.90
21318;DHT22;10818;50.830;6.524;2023-04-03T11:47:43;9.90;83.40
21318;DHT22;10818;50.830;6.524;2023-04-03T12:02:59;10.00;82.30
21318;DHT22;10818;50.830;6.524;2023-04-03T12:08:16;10.20;81.00
21318;DHT22;10818;50.830;6.524;2023-04-03T12:13:17;9.90;77.90
21318;DHT22;10818;50.830;6.524;2023-04-03T12:23:58;9.60;76.00
21318;DHT22;10818;50.830;6.524;2023-04-03T12:28:57;10.00;78.40
21318;DHT22;10818;50.830;6.524;2023-04-03T12:34:12;10.30;70.10
21318;DHT22;10818;50.830;6.524;2023-04-03T12:39:25;10.30;70.20
21318;DHT22;10818;50.830;6.524;2023-04-03T12:44:37;10.50;69.10
21318;DHT22;10818;50.830;6.524;2023-04-03T12:49:41;10.30;70.70
21318;DHT22;10818;50.830;6.524;2023-04-03T12:54:42;10.10;73.60
21318;DHT22;10818;50.830;6.524;2023-04-03T12:59:45;10.30;69.30
21318;DHT22;10818;50.830;6.524;2023-04-03T13:04:47;10.40;71.70
21318;DHT22;10818;50.830;6.524;2023-04-03T13:09:55;10.50;73.00
21318;DHT22;10818;50.830;6.524;2023-04-03T13:14:57;10.40;69.10
21318;DHT22;10818;50.830;6.524;2023-04-03T13:20:09;10.80;67.20
21318;DHT22;10818;50.830;6.524;2023-04-03T13:25:10;10.80;67.50
21318;DHT22;10818;50.830;6.524;2023-04-03T13:35:34;10.60;65.20
21318;DHT22;10818;50.830;6.524;2023-04-03T13:40:46;10.70;67.00
21318;DHT22;10818;50.830;6.524;2023-04-03T13:45:54;10.70;65.60
21318;DHT22;10818;50.830;6.524;2023-04-03T13:51:00;10.50;66.20
21318;DHT22;10818;50.830;6.524;2023-04-03T14:01:17;11.00;65.40
21318;DHT22;10818;50.830;6.524;2023-04-03T14:06:17;11.10;63.40
21318;DHT22;10818;50.830;6.524;2023-04-03T14:11:19;10.90;64.60
21318;DHT22;10818;50.830;6.524;2023-04-03T14:16:22;11.10;66.70
21318;DHT22;10818;50.830;6.524;2023-04-03T14:21:23;10.90;66.20
21318;DHT22;10818;50.830;6.524;2023-04-03T14:26:24;11.20;66.20
21318;DHT22;10818;50.830;6.524;2023-04-03T14:31:26;11.20;63.90
21318;DHT22;10818;50.830;6.524;2023-04-03T14:36:27;11.10;66.50
21318;DHT22;10818;50.830;6.524;2023-04-03T14:41:28;11.30;66.70
21318;DHT22;10818;50.830;6.524;2023-04-03T14:51:29;11.40;64.80
21318;DHT22;10818;50.830;6.524;2023-04-03T14:56:29;11.40;64.00
21318;DHT22;10818;50.830;6.524;2023-04-03T15:01:30;11.20;63.80
21318;DHT22;10818;50.830;6.524;2023-04-03T15:06:30;11.30;65.10
21318;DHT22;10818;50.830;6.524;2023-04-03T15:11:37;11.60;62.90
21318;DHT22;10818;50.830;6.524;2023-04-03T15:16:38;11.60;63.50
21318;DHT22;10818;50.830;6.524;2023-04-03T15:21:38;11.60;64.60
21318;DHT22;10818;50.830;6.524;2023-04-03T15:26:39;11.20;67.10
21318;DHT22;10818;50.830;6.524;2023-04-03T15:31:39;11.60;65.90
21318;DHT22;10818;50.830;6.524;2023-04-03T15:36:40;11.60;66.20
21318;DHT22;10818;50.830;6.524;2023-04-03T15:41:40;11.80;65.80
21318;DHT22;10818;50.830;6.524;2023-04-03T15:46:41;11.30;64.80
21318;DHT22;10818;50.830;6.524;2023-04-03T15:51:41;11.10;67.60
21318;DHT22;10818;50.830;6.524;2023-04-03T15:56:42;11.30;67.00
21318;DHT22;10818;50.830;6.524;2023-04-03T16:01:42;11.50;64.20
21318;DHT22;10818;50.830;6.524;2023-04-03T16:06:43;11.50;66.10
21318;DHT22;10818;50.830;6.524;2023-04-03T16:11:43;10.90;76.00
21318;DHT22;10818;50.830;6.524;2023-04-03T16:16:44;10.80;74.90
21318;DHT22;10818;50.830;6.524;2023-04-03T16:21:44;10.60;75.10
21318;DHT22;10818;50.830;6.524;2023-04-03T16:26:45;10.50;77.40
21318;DHT22;10818;50.830;6.524;2023-04-03T16:31:45;10.70;73.80
21318;DHT22;10818;50.830;6.524;2023-04-03T16:36:46;10.40;75.60
21318;DHT22;10818;50.830;6.524;2023-04-03T16:41:46;10.30;79.30
21318;DHT22;10818;50.830;6.524;2023-04-03T16:46:47;10.10;78.40
21318;DHT22;10818;50.830;6.524;2023-04-03T16:51:48;10.00;78.60
21318;DHT22;10818;50.830;6.524;2023-04-03T16:56:48;10.10;81.90
21318;DHT22;10818;50.830;6.524;2023-04-03T17:01:49;10.10;80.10
21318;DHT22;10818;50.830;6.524;2023-04-03T17:06:49;9.80;84.80
21318;DHT22;10818;50.830;6.524;2023-04-03T17:11:51;9.70;86.00
21318;DHT22;10818;50.830;6.524;2023-04-03T17:16:52;9.40;87.30
21318;DHT22;10818;50.830;6.524;2023-04-03T17:21:52;9.10;87.20
21318;DHT22;10818;50.830;6.524;2023-04-03T17:26:53;9.00;89.60
21318;DHT22;10818;50.830;6.524;2023-04-03T17:31:54;8.80;91.90
21318;DHT22;10818;50.830;6.524;2023-04-03T17:36:54;8.60;92.90
21318;DHT22;10818;50.830;6.524;2023-04-03T17:41:55;8.40;93.00
21318;DHT22;10818;50.830;6.524;2023-04-03T17:46:55;8.30;93.70
21318;DHT22;10818;50.830;6.524;2023-04-03T17:51:56;8.20;94.80
21318;DHT22;10818;50.830;6.524;2023-04-03T17:56:57;7.80;96.00
21318;DHT22;10818;50.830;6.524;2023-04-03T18:01:57;7.70;96.30
21318;DHT22;10818;50.830;6.524;2023-04-03T18:06:57;7.40;96.00
21318;DHT22;10818;50.830;6.524;2023-04-03T18:11:59;7.30;96.80
21318;DHT22;10818;50.830;6.524;2023-04-03T18:17:01;7.10;98.00
21318;DHT22;10818;50.830;6.524;2023-04-03T18:22:03;6.90;98.10
21318;DHT22;10818;50.830;6.524;2023-04-03T18:27:06;6.70;99.80
21318;DHT22;10818;50.830;6.524;2023-04-03T18:32:09;6.60;99.90
21318;DHT22;10818;50.830;6.524;2023-04-03T18:37:11;6.40;99.90
21318;DHT22;10818;50.830;6.524;2023-04-03T18:42:12;6.20;99.90
21318;DHT22;10818;50.830;6.524;2023-04-03T18:47:14;6.00;99.90
21318;DHT22;10818;50.830;6.524;2023-04-03T18:52:14;6.00;99.90
21318;DHT22;10818;50.830;6.524;2023-04-03T18:57:15;5.80;99.90
21318;DHT22;10818;50.830;6.524;2023-04-03T19:02:15;5.80;99.90
21318;DHT22;10818;50.830;6.524;2023-04-03T19:07:23;5.70;99.90
21318;DHT22;10818;50.830;6.524;2023-04-03T19:12:23;5.50;99.90
21318;DHT22;10818;50.830;6.524;2023-04-03T19:17:24;5.60;99.90
21318;DHT22;10818;50.830;6.524;2023-04-03T19:22:25;5.40;99.90
21318;DHT22;10818;50.830;6.524;2023-04-03T19:27:25;5.30;99.90
21318;DHT22;10818;50.830;6.524;2023-04-03T19:32:25;5.20;99.90
21318;DHT22;10818;50.830;6.524;2023-04-03T19:37:26;5.10;99.90
21318;DHT22;10818;50.830;6.524;2023-04-03T19:42:27;5.00;99.90
21318;DHT22;10818;50.830;6.524;2023-04-03T19:47:28;4.90;99.90
21318;DHT22;10818;50.830;6.524;2023-04-03T19:52:28;4.70;99.90
21318;DHT22;10818;50.830;6.524;2023-04-03T19:57:29;4.60;99.90
21318;DHT22;10818;50.830;6.524;2023-04-03T20:02:30;4.40;99.90
21318;DHT22;10818;50.830;6.524;2023-04-03T20:07:30;4.30;99.90
21318;DHT22;10818;50.830;6.524;2023-04-03T20:12:31;4.40;99.90
21318;DHT22;10818;50.830;6.524;2023-04-03T20:17:31;4.20;99.90
21318;DHT22;10818;50.830;6.524;2023-04-03T20:22:33;4.10;99.90
21318;DHT22;10818;50.830;6.524;2023-04-03T20:27:34;4.00;99.90
21318;DHT22;10818;50.830;6.524;2023-04-03T20:32:35;4.00;99.90
21318;DHT22;10818;50.830;6.524;2023-04-03T20:37:35;3.80;99.90
21318;DHT22;10818;50.830;6.524;2023-04-03T20:42:37;3.70;99.90
21318;DHT22;10818;50.830;6.524;2023-04-03T20:47:37;3.70;99.90
21318;DHT22;10818;50.830;6.524;2023-04-03T20:52:38;3.80;99.90
21318;DHT22;10818;50.830;6.524;2023-04-03T20:57:40;3.70;99.90
21318;DHT22;10818;50.830;6.524;2023-04-03T21:02:43;3.90;99.90
21318;DHT22;10818;50.830;6.524;2023-04-03T21:23:41;4.00;99.90
21318;DHT22;10818;50.830;6.524;2023-04-03T21:28:42;3.80;99.90
21318;DHT22;10818;50.830;6.524;2023-04-03T21:33:42;3.60;99.90
21318;DHT22;10818;50.830;6.524;2023-04-03T21:38:43;3.60;99.90
21318;DHT22;10818;50.830;6.524;2023-04-03T21:43:46;3.60;99.90
21318;DHT22;10818;50.830;6.524;2023-04-03T21:48:47;3.50;99.90
21318;DHT22;10818;50.830;6.524;2023-04-03T21:53:51;3.50;99.90
21318;DHT22;10818;50.830;6.524;2023-04-03T21:58:52;3.40;99.90
21318;DHT22;10818;50.830;6.524;2023-04-03T22:03:55;3.30;99.90
21318;DHT22;10818;50.830;6.524;2023-04-03T22:08:56;3.10;99.90
21318;DHT22;10818;50.830;6.524;2023-04-03T22:13:56;3.10;99.90
21318;DHT22;10818;50.830;6.524;2023-04-03T22:18:57;3.00;99.90
21318;DHT22;10818;50.830;6.524;2023-04-03T22:23:58;3.10;99.90
21318;DHT22;10818;50.830;6.524;2023-04-03T22:28:58;2.90;99.90
21318;DHT22;10818;50.830;6.524;2023-04-03T22:33:59;2.90;99.90
21318;DHT22;10818;50.830;6.524;2023-04-03T22:39:03;2.90;99.90
21318;DHT22;10818;50.830;6.524;2023-04-03T22:44:03;2.90;99.90
21318;DHT22;10818;50.830;6.524;2023-04-03T22:49:04;3.00;99.90
21318;DHT22;10818;50.830;6.524;2023-04-03T22:54:04;2.90;99.90
21318;DHT22;10818;50.830;6.524;2023-04-03T22:59:05;2.90;99.90
21318;DHT22;10818;50.830;6.524;2023-04-03T23:04:05;2.80;99.90
21318;DHT22;10818;50.830;6.524;2023-04-03T23:09:06;2.80;99.90
21318;DHT22;10818;50.830;6.524;2023-04-03T23:14:06;2.70;99.90
21318;DHT22;10818;50.830;6.524;2023-04-03T23:19:07;2.50;99.90
21318;DHT22;10818;50.830;6.524;2023-04-03T23:24:07;2.60;99.90
21318;DHT22;10818;50.830;6.524;2023-04-03T23:29:08;2.70;99.90
21318;DHT22;10818;50.830;6.524;2023-04-03T23:34:08;2.60;99.90
21318;DHT22;10818;50.830;6.524;2023-04-03T23:39:09;2.50;99.90
21318;DHT22;10818;50.830;6.524;2023-04-03T23:44:09;2.50;99.90
21318;DHT22;10818;50.830;6.524;2023-04-03T23:49:09;2.50;99.90
21318;DHT22;10818;50.830;6.524;2023-04-03T23:54:10;2.30;99.90
21318;DHT22;10818;50.830;6.524;2023-04-03T23:59:10;2.30;99.90
